sensor_id;sensor_type;location;lat;lon;timestamp;P1;durP1;ratioP1;P2;durP2;ratioP2
67554;SDS011;54385;53.516;49.456;2023-03-25T00:01:06;7.78;;;4.18;;
67554;SDS011;54385;53.516;49.456;2023-03-25T00:03:51;8.40;;;4.28;;
67554;SDS011;54385;53.516;49.456;2023-03-25T00:06:18;12.13;;;4.97;;
67554;SDS011;54385;53.516;49.456;2023-03-25T00:08:46;10.27;;;5.30;;
67554;SDS011;54385;53.516;49.456;2023-03-25T00:11:12;13.27;;;4.43;;
67554;SDS011;54385;53.516;49.456;2023-03-25T00:13:39;8.48;;;4.28;;
67554;SDS011;54385;53.516;49.456;2023-03-25T00:16:07;10.02;;;4.50;;
67554;SDS011;54385;53.516;49.456;2023-03-25T00:18:35;5.15;;;3.53;;
67554;SDS011;54385;53.516;49.456;2023-03-25T00:21:03;12.75;;;5.07;;
67554;SDS011;54385;53.516;49.456;2023-03-25T00:23:36;11.10;;;4.28;;
67554;SDS011;54385;53.516;49.456;2023-03-25T00:26:04;11.43;;;5.00;;
67554;SDS011;54385;53.516;49.456;2023-03-25T00:28:32;8.65;;;4.60;;
67554;SDS011;54385;53.516;49.456;2023-03-25T00:31:05;7.47;;;5.00;;
67554;SDS011;54385;53.516;49.456;2023-03-25T00:36:00;8.15;;;4.80;;
67554;SDS011;54385;53.516;49.456;2023-03-25T00:38:30;12.50;;;4.60;;
67554;SDS011;54385;53.516;49.456;2023-03-25T00:41:20;12.07;;;4.65;;
67554;SDS011;54385;53.516;49.456;2023-03-25T00:43:48;9.57;;;5.50;;
67554;SDS011;54385;53.516;49.456;2023-03-25T00:46:16;10.35;;;5.10;;
67554;SDS011;54385;53.516;49.456;2023-03-25T00:48:43;8.60;;;4.60;;
67554;SDS011;54385;53.516;49.456;2023-03-25T00:51:09;8.90;;;5.07;;
67554;SDS011;54385;53.516;49.456;2023-03-25T00:53:39;9.68;;;5.55;;
67554;SDS011;54385;53.516;49.456;2023-03-25T00:56:06;13.55;;;5.65;;
67554;SDS011;54385;53.516;49.456;2023-03-25T00:58:33;8.48;;;5.10;;
67554;SDS011;54385;53.516;49.456;2023-03-25T01:01:00;8.65;;;5.28;;
67554;SDS011;54385;53.516;49.456;2023-03-25T01:03:32;8.07;;;4.93;;
67554;SDS011;54385;53.516;49.456;2023-03-25T01:06:02;9.85;;;5.55;;
67554;SDS011;54385;53.516;49.456;2023-03-25T01:08:29;7.35;;;3.88;;
67554;SDS011;54385;53.516;49.456;2023-03-25T01:10:56;10.25;;;5.38;;
67554;SDS011;54385;53.516;49.456;2023-03-25T01:13:23;10.93;;;5.28;;
67554;SDS011;54385;53.516;49.456;2023-03-25T01:15:50;9.63;;;5.13;;
67554;SDS011;54385;53.516;49.456;2023-03-25T01:18:17;9.18;;;6.30;;
67554;SDS011;54385;53.516;49.456;2023-03-25T01:20:43;7.55;;;4.70;;
67554;SDS011;54385;53.516;49.456;2023-03-25T01:23:10;11.90;;;5.80;;
67554;SDS011;54385;53.516;49.456;2023-03-25T01:25:37;9.40;;;5.07;;
67554;SDS011;54385;53.516;49.456;2023-03-25T01:28:04;9.13;;;5.25;;
67554;SDS011;54385;53.516;49.456;2023-03-25T01:30:31;11.88;;;5.38;;
67554;SDS011;54385;53.516;49.456;2023-03-25T01:32:58;10.77;;;4.53;;
67554;SDS011;54385;53.516;49.456;2023-03-25T01:35:25;13.02;;;5.18;;
67554;SDS011;54385;53.516;49.456;2023-03-25T01:37:51;10.93;;;6.45;;
67554;SDS011;54385;53.516;49.456;2023-03-25T01:40:20;9.93;;;5.88;;
67554;SDS011;54385;53.516;49.456;2023-03-25T01:42:49;9.77;;;4.72;;
67554;SDS011;54385;53.516;49.456;2023-03-25T01:45:24;12.25;;;5.28;;
67554;SDS011;54385;53.516;49.456;2023-03-25T01:50:29;13.73;;;6.60;;
67554;SDS011;54385;53.516;49.456;2023-03-25T01:52:57;12.77;;;5.90;;
67554;SDS011;54385;53.516;49.456;2023-03-25T01:55:26;9.43;;;5.85;;
67554;SDS011;54385;53.516;49.456;2023-03-25T01:57:55;9.15;;;6.13;;
67554;SDS011;54385;53.516;49.456;2023-03-25T02:00:24;8.43;;;6.20;;
67554;SDS011;54385;53.516;49.456;2023-03-25T02:02:51;10.13;;;6.18;;
67554;SDS011;54385;53.516;49.456;2023-03-25T02:05:26;12.85;;;6.13;;
67554;SDS011;54385;53.516;49.456;2023-03-25T02:08:01;8.07;;;5.80;;
67554;SDS011;54385;53.516;49.456;2023-03-25T02:10:33;6.57;;;4.13;;
67554;SDS011;54385;53.516;49.456;2023-03-25T02:13:02;9.95;;;5.97;;
67554;SDS011;54385;53.516;49.456;2023-03-25T02:15:44;9.02;;;5.68;;
67554;SDS011;54385;53.516;49.456;2023-03-25T02:30:20;8.43;;;5.38;;
67554;SDS011;54385;53.516;49.456;2023-03-25T02:43:39;8.27;;;5.18;;
67554;SDS011;54385;53.516;49.456;2023-03-25T02:46:16;9.68;;;5.88;;
67554;SDS011;54385;53.516;49.456;2023-03-25T02:49:01;7.28;;;4.63;;
67554;SDS011;54385;53.516;49.456;2023-03-25T02:51:53;6.57;;;4.18;;
67554;SDS011;54385;53.516;49.456;2023-03-25T02:54:25;6.70;;;4.20;;
67554;SDS011;54385;53.516;49.456;2023-03-25T02:56:55;5.97;;;4.40;;
67554;SDS011;54385;53.516;49.456;2023-03-25T02:59:26;5.97;;;4.47;;
67554;SDS011;54385;53.516;49.456;2023-03-25T03:01:58;6.82;;;4.60;;
67554;SDS011;54385;53.516;49.456;2023-03-25T03:04:27;7.18;;;4.63;;
67554;SDS011;54385;53.516;49.456;2023-03-25T03:06:54;7.28;;;4.95;;
67554;SDS011;54385;53.516;49.456;2023-03-25T03:12:11;8.18;;;5.00;;
67554;SDS011;54385;53.516;49.456;2023-03-25T03:17:36;5.72;;;4.47;;
67554;SDS011;54385;53.516;49.456;2023-03-25T03:20:28;6.93;;;4.55;;
67554;SDS011;54385;53.516;49.456;2023-03-25T03:26:03;5.90;;;3.95;;
67554;SDS011;54385;53.516;49.456;2023-03-25T03:28:50;6.15;;;3.80;;
67554;SDS011;54385;53.516;49.456;2023-03-25T03:31:40;5.88;;;3.80;;
67554;SDS011;54385;53.516;49.456;2023-03-25T03:34:10;6.53;;;4.38;;
67554;SDS011;54385;53.516;49.456;2023-03-25T03:36:45;5.25;;;4.40;;
67554;SDS011;54385;53.516;49.456;2023-03-25T03:39:17;5.97;;;3.97;;
67554;SDS011;54385;53.516;49.456;2023-03-25T03:41:49;6.13;;;3.85;;
67554;SDS011;54385;53.516;49.456;2023-03-25T03:44:22;5.32;;;4.07;;
67554;SDS011;54385;53.516;49.456;2023-03-25T03:46:59;6.05;;;3.60;;
67554;SDS011;54385;53.516;49.456;2023-03-25T03:49:37;6.85;;;4.15;;
67554;SDS011;54385;53.516;49.456;2023-03-25T03:52:28;6.95;;;3.65;;
67554;SDS011;54385;53.516;49.456;2023-03-25T03:55:03;6.03;;;4.25;;
67554;SDS011;54385;53.516;49.456;2023-03-25T03:57:37;6.40;;;3.65;;
67554;SDS011;54385;53.516;49.456;2023-03-25T04:00:32;6.03;;;3.90;;
67554;SDS011;54385;53.516;49.456;2023-03-25T04:03:04;6.82;;;4.30;;
67554;SDS011;54385;53.516;49.456;2023-03-25T04:05:39;7.25;;;3.72;;
67554;SDS011;54385;53.516;49.456;2023-03-25T04:08:14;6.55;;;4.63;;
67554;SDS011;54385;53.516;49.456;2023-03-25T04:13:24;5.40;;;4.18;;
67554;SDS011;54385;53.516;49.456;2023-03-25T04:16:00;6.75;;;4.30;;
67554;SDS011;54385;53.516;49.456;2023-03-25T04:18:27;5.43;;;3.97;;
67554;SDS011;54385;53.516;49.456;2023-03-25T04:20:54;6.82;;;4.85;;
67554;SDS011;54385;53.516;49.456;2023-03-25T04:23:21;5.05;;;3.58;;
67554;SDS011;54385;53.516;49.456;2023-03-25T04:25:48;5.32;;;3.92;;
67554;SDS011;54385;53.516;49.456;2023-03-25T04:28:18;5.70;;;4.18;;
67554;SDS011;54385;53.516;49.456;2023-03-25T04:30:45;7.05;;;4.63;;
67554;SDS011;54385;53.516;49.456;2023-03-25T04:33:13;5.32;;;4.03;;
67554;SDS011;54385;53.516;49.456;2023-03-25T04:35:40;5.25;;;3.83;;
67554;SDS011;54385;53.516;49.456;2023-03-25T04:38:07;5.03;;;3.63;;
67554;SDS011;54385;53.516;49.456;2023-03-25T04:40:33;7.18;;;3.75;;
67554;SDS011;54385;53.516;49.456;2023-03-25T04:43:00;4.47;;;3.35;;
67554;SDS011;54385;53.516;49.456;2023-03-25T04:45:30;8.55;;;4.13;;
67554;SDS011;54385;53.516;49.456;2023-03-25T04:48:01;8.15;;;4.72;;
67554;SDS011;54385;53.516;49.456;2023-03-25T04:50:30;8.70;;;5.18;;
67554;SDS011;54385;53.516;49.456;2023-03-25T04:52:57;8.85;;;5.10;;
67554;SDS011;54385;53.516;49.456;2023-03-25T04:55:27;9.88;;;4.55;;
67554;SDS011;54385;53.516;49.456;2023-03-25T04:57:54;10.85;;;4.50;;
67554;SDS011;54385;53.516;49.456;2023-03-25T05:00:22;7.15;;;3.78;;
67554;SDS011;54385;53.516;49.456;2023-03-25T05:02:50;6.68;;;3.50;;
67554;SDS011;54385;53.516;49.456;2023-03-25T05:05:20;7.65;;;4.00;;
67554;SDS011;54385;53.516;49.456;2023-03-25T05:07:49;5.47;;;3.80;;
67554;SDS011;54385;53.516;49.456;2023-03-25T05:10:19;5.45;;;4.07;;
67554;SDS011;54385;53.516;49.456;2023-03-25T05:12:47;6.45;;;4.25;;
67554;SDS011;54385;53.516;49.456;2023-03-25T05:15:14;6.30;;;4.28;;
67554;SDS011;54385;53.516;49.456;2023-03-25T05:17:44;5.82;;;4.15;;
67554;SDS011;54385;53.516;49.456;2023-03-25T05:20:11;6.47;;;4.07;;
67554;SDS011;54385;53.516;49.456;2023-03-25T05:22:39;6.05;;;3.60;;
67554;SDS011;54385;53.516;49.456;2023-03-25T05:25:07;5.47;;;3.55;;
67554;SDS011;54385;53.516;49.456;2023-03-25T05:27:35;5.15;;;3.33;;
67554;SDS011;54385;53.516;49.456;2023-03-25T05:30:03;6.32;;;3.80;;
67554;SDS011;54385;53.516;49.456;2023-03-25T05:32:31;7.40;;;3.92;;
67554;SDS011;54385;53.516;49.456;2023-03-25T05:34:59;9.40;;;4.22;;
67554;SDS011;54385;53.516;49.456;2023-03-25T05:37:26;8.55;;;4.65;;
67554;SDS011;54385;53.516;49.456;2023-03-25T05:39:53;7.15;;;4.03;;
67554;SDS011;54385;53.516;49.456;2023-03-25T05:42:19;7.38;;;4.38;;
67554;SDS011;54385;53.516;49.456;2023-03-25T05:44:50;7.47;;;4.72;;
67554;SDS011;54385;53.516;49.456;2023-03-25T05:47:18;8.27;;;4.78;;
67554;SDS011;54385;53.516;49.456;2023-03-25T05:49:52;12.13;;;5.25;;
67554;SDS011;54385;53.516;49.456;2023-03-25T05:52:22;13.48;;;7.05;;
67554;SDS011;54385;53.516;49.456;2023-03-25T05:54:49;11.73;;;6.38;;
67554;SDS011;54385;53.516;49.456;2023-03-25T05:57:16;36.55;;;8.45;;
67554;SDS011;54385;53.516;49.456;2023-03-25T05:59:43;5.78;;;3.72;;
67554;SDS011;54385;53.516;49.456;2023-03-25T06:02:11;9.00;;;4.45;;
67554;SDS011;54385;53.516;49.456;2023-03-25T06:04:39;8.57;;;4.25;;
67554;SDS011;54385;53.516;49.456;2023-03-25T06:07:08;6.20;;;4.18;;
67554;SDS011;54385;53.516;49.456;2023-03-25T06:09:40;6.50;;;3.70;;
67554;SDS011;54385;53.516;49.456;2023-03-25T06:12:14;8.82;;;4.22;;
67554;SDS011;54385;53.516;49.456;2023-03-25T06:14:42;6.18;;;3.65;;
67554;SDS011;54385;53.516;49.456;2023-03-25T06:17:11;7.80;;;4.47;;
67554;SDS011;54385;53.516;49.456;2023-03-25T06:19:38;6.70;;;3.75;;
67554;SDS011;54385;53.516;49.456;2023-03-25T06:22:05;8.10;;;4.80;;
67554;SDS011;54385;53.516;49.456;2023-03-25T06:24:39;9.63;;;4.10;;
67554;SDS011;54385;53.516;49.456;2023-03-25T06:27:08;9.07;;;3.92;;
67554;SDS011;54385;53.516;49.456;2023-03-25T06:29:38;6.68;;;4.00;;
67554;SDS011;54385;53.516;49.456;2023-03-25T06:32:08;6.90;;;3.67;;
67554;SDS011;54385;53.516;49.456;2023-03-25T06:34:38;6.20;;;4.03;;
67554;SDS011;54385;53.516;49.456;2023-03-25T06:37:07;8.48;;;4.28;;
67554;SDS011;54385;53.516;49.456;2023-03-25T06:39:34;7.47;;;3.78;;
67554;SDS011;54385;53.516;49.456;2023-03-25T06:42:03;6.10;;;3.75;;
67554;SDS011;54385;53.516;49.456;2023-03-25T06:44:31;5.22;;;3.70;;
67554;SDS011;54385;53.516;49.456;2023-03-25T06:46:58;5.18;;;4.05;;
67554;SDS011;54385;53.516;49.456;2023-03-25T06:49:27;8.18;;;4.05;;
67554;SDS011;54385;53.516;49.456;2023-03-25T06:51:54;5.43;;;3.25;;
67554;SDS011;54385;53.516;49.456;2023-03-25T06:54:20;5.70;;;3.42;;
67554;SDS011;54385;53.516;49.456;2023-03-25T06:56:47;6.13;;;3.40;;
67554;SDS011;54385;53.516;49.456;2023-03-25T06:59:14;6.30;;;3.38;;
67554;SDS011;54385;53.516;49.456;2023-03-25T07:01:41;5.65;;;3.97;;
67554;SDS011;54385;53.516;49.456;2023-03-25T07:04:08;5.70;;;3.10;;
67554;SDS011;54385;53.516;49.456;2023-03-25T07:06:35;7.78;;;3.00;;
67554;SDS011;54385;53.516;49.456;2023-03-25T07:09:02;7.47;;;2.90;;
67554;SDS011;54385;53.516;49.456;2023-03-25T07:11:29;4.97;;;2.60;;
67554;SDS011;54385;53.516;49.456;2023-03-25T07:13:57;3.28;;;2.63;;
67554;SDS011;54385;53.516;49.456;2023-03-25T07:16:23;8.30;;;3.55;;
67554;SDS011;54385;53.516;49.456;2023-03-25T07:18:50;8.70;;;2.90;;
67554;SDS011;54385;53.516;49.456;2023-03-25T07:21:17;5.80;;;3.25;;
67554;SDS011;54385;53.516;49.456;2023-03-25T07:23:53;8.38;;;3.53;;
67554;SDS011;54385;53.516;49.456;2023-03-25T07:26:20;4.57;;;3.08;;
67554;SDS011;54385;53.516;49.456;2023-03-25T07:31:13;7.13;;;3.10;;
67554;SDS011;54385;53.516;49.456;2023-03-25T07:33:41;5.43;;;3.20;;
67554;SDS011;54385;53.516;49.456;2023-03-25T07:36:08;7.47;;;3.00;;
67554;SDS011;54385;53.516;49.456;2023-03-25T07:38:36;15.75;;;3.35;;
67554;SDS011;54385;53.516;49.456;2023-03-25T07:41:04;5.55;;;3.25;;
67554;SDS011;54385;53.516;49.456;2023-03-25T07:43:31;4.30;;;2.58;;
67554;SDS011;54385;53.516;49.456;2023-03-25T07:45:58;7.45;;;3.65;;
67554;SDS011;54385;53.516;49.456;2023-03-25T07:50:54;9.13;;;2.95;;
67554;SDS011;54385;53.516;49.456;2023-03-25T07:55:47;7.15;;;2.97;;
67554;SDS011;54385;53.516;49.456;2023-03-25T07:58:17;3.83;;;2.65;;
67554;SDS011;54385;53.516;49.456;2023-03-25T08:00:46;10.23;;;2.55;;
67554;SDS011;54385;53.516;49.456;2023-03-25T08:05:45;3.50;;;2.30;;
67554;SDS011;54385;53.516;49.456;2023-03-25T08:08:12;2.97;;;2.25;;
67554;SDS011;54385;53.516;49.456;2023-03-25T08:10:43;5.07;;;2.53;;
67554;SDS011;54385;53.516;49.456;2023-03-25T08:13:11;7.38;;;2.17;;
67554;SDS011;54385;53.516;49.456;2023-03-25T08:15:39;5.75;;;2.60;;
67554;SDS011;54385;53.516;49.456;2023-03-25T08:18:05;4.82;;;2.45;;
67554;SDS011;54385;53.516;49.456;2023-03-25T08:20:32;3.72;;;2.10;;
67554;SDS011;54385;53.516;49.456;2023-03-25T08:22:59;2.15;;;1.70;;
67554;SDS011;54385;53.516;49.456;2023-03-25T08:27:52;4.40;;;1.80;;
67554;SDS011;54385;53.516;49.456;2023-03-25T08:32:45;7.88;;;2.03;;
67554;SDS011;54385;53.516;49.456;2023-03-25T08:37:38;3.60;;;1.65;;
67554;SDS011;54385;53.516;49.456;2023-03-25T08:40:05;5.43;;;1.73;;
67554;SDS011;54385;53.516;49.456;2023-03-25T08:42:34;7.50;;;2.00;;
67554;SDS011;54385;53.516;49.456;2023-03-25T08:45:02;4.18;;;1.92;;
67554;SDS011;54385;53.516;49.456;2023-03-25T08:47:30;3.47;;;2.20;;
67554;SDS011;54385;53.516;49.456;2023-03-25T08:52:22;17.35;;;2.67;;
67554;SDS011;54385;53.516;49.456;2023-03-25T08:54:49;5.38;;;1.80;;
67554;SDS011;54385;53.516;49.456;2023-03-25T08:57:15;3.92;;;1.65;;
67554;SDS011;54385;53.516;49.456;2023-03-25T08:59:43;2.00;;;1.50;;
67554;SDS011;54385;53.516;49.456;2023-03-25T09:04:36;4.90;;;1.58;;
67554;SDS011;54385;53.516;49.456;2023-03-25T09:07:06;9.32;;;1.73;;
67554;SDS011;54385;53.516;49.456;2023-03-25T09:09:38;3.47;;;1.40;;
67554;SDS011;54385;53.516;49.456;2023-03-25T09:12:05;2.42;;;1.20;;
67554;SDS011;54385;53.516;49.456;2023-03-25T09:14:32;1.77;;;1.27;;
67554;SDS011;54385;53.516;49.456;2023-03-25T09:16:59;4.10;;;1.77;;
67554;SDS011;54385;53.516;49.456;2023-03-25T09:19:25;3.45;;;1.40;;
67554;SDS011;54385;53.516;49.456;2023-03-25T09:21:52;3.60;;;1.27;;
67554;SDS011;54385;53.516;49.456;2023-03-25T09:24:18;8.07;;;1.42;;
67554;SDS011;54385;53.516;49.456;2023-03-25T09:26:47;8.77;;;2.00;;
67554;SDS011;54385;53.516;49.456;2023-03-25T09:29:13;3.65;;;1.70;;
67554;SDS011;54385;53.516;49.456;2023-03-25T09:31:40;2.70;;;1.50;;
67554;SDS011;54385;53.516;49.456;2023-03-25T09:34:07;7.35;;;2.40;;
67554;SDS011;54385;53.516;49.456;2023-03-25T09:36:33;13.55;;;2.00;;
67554;SDS011;54385;53.516;49.456;2023-03-25T09:39:00;11.52;;;2.00;;
67554;SDS011;54385;53.516;49.456;2023-03-25T09:46:37;2.63;;;1.15;;
67554;SDS011;54385;53.516;49.456;2023-03-25T09:49:07;2.45;;;1.40;;
67554;SDS011;54385;53.516;49.456;2023-03-25T09:51:41;2.33;;;1.52;;
67554;SDS011;54385;53.516;49.456;2023-03-25T09:54:21;14.15;;;2.65;;
67554;SDS011;54385;53.516;49.456;2023-03-25T09:56:52;15.13;;;2.83;;
67554;SDS011;54385;53.516;49.456;2023-03-25T09:59:22;11.68;;;2.20;;
67554;SDS011;54385;53.516;49.456;2023-03-25T10:10:12;9.02;;;2.47;;
67554;SDS011;54385;53.516;49.456;2023-03-25T10:18:18;4.55;;;1.70;;
67554;SDS011;54385;53.516;49.456;2023-03-25T10:23:37;4.63;;;1.92;;
67554;SDS011;54385;53.516;49.456;2023-03-25T10:26:29;8.38;;;2.35;;
67554;SDS011;54385;53.516;49.456;2023-03-25T10:29:20;2.60;;;1.70;;
67554;SDS011;54385;53.516;49.456;2023-03-25T10:31:53;2.90;;;1.80;;
67554;SDS011;54385;53.516;49.456;2023-03-25T10:34:36;4.40;;;2.15;;
67554;SDS011;54385;53.516;49.456;2023-03-25T10:37:10;5.60;;;1.88;;
67554;SDS011;54385;53.516;49.456;2023-03-25T10:39:42;7.50;;;1.70;;
67554;SDS011;54385;53.516;49.456;2023-03-25T10:44:48;4.70;;;2.00;;
67554;SDS011;54385;53.516;49.456;2023-03-25T10:47:16;2.95;;;1.80;;
67554;SDS011;54385;53.516;49.456;2023-03-25T10:49:45;6.43;;;2.17;;
67554;SDS011;54385;53.516;49.456;2023-03-25T10:52:14;2.65;;;1.58;;
67554;SDS011;54385;53.516;49.456;2023-03-25T10:54:45;6.45;;;2.53;;
67554;SDS011;54385;53.516;49.456;2023-03-25T10:57:21;4.57;;;2.17;;
67554;SDS011;54385;53.516;49.456;2023-03-25T11:00:08;4.32;;;2.13;;
67554;SDS011;54385;53.516;49.456;2023-03-25T11:02:43;5.55;;;1.95;;
67554;SDS011;54385;53.516;49.456;2023-03-25T11:05:10;15.43;;;3.28;;
67554;SDS011;54385;53.516;49.456;2023-03-25T11:07:47;13.30;;;2.83;;
67554;SDS011;54385;53.516;49.456;2023-03-25T11:10:29;3.00;;;2.00;;
67554;SDS011;54385;53.516;49.456;2023-03-25T11:13:01;3.30;;;1.60;;
67554;SDS011;54385;53.516;49.456;2023-03-25T11:15:29;4.25;;;1.80;;
67554;SDS011;54385;53.516;49.456;2023-03-25T11:18:03;4.05;;;1.85;;
67554;SDS011;54385;53.516;49.456;2023-03-25T11:20:37;4.45;;;1.83;;
67554;SDS011;54385;53.516;49.456;2023-03-25T11:23:48;10.75;;;2.42;;
67554;SDS011;54385;53.516;49.456;2023-03-25T11:25:55;4.95;;;1.60;;
67554;SDS011;54385;53.516;49.456;2023-03-25T11:31:11;3.88;;;2.05;;
67554;SDS011;54385;53.516;49.456;2023-03-25T11:33:43;3.97;;;1.90;;
67554;SDS011;54385;53.516;49.456;2023-03-25T11:36:27;5.47;;;1.83;;
67554;SDS011;54385;53.516;49.456;2023-03-25T11:38:56;11.15;;;2.38;;
67554;SDS011;54385;53.516;49.456;2023-03-25T11:41:31;5.35;;;2.60;;
67554;SDS011;54385;53.516;49.456;2023-03-25T11:43:59;7.60;;;2.90;;
67554;SDS011;54385;53.516;49.456;2023-03-25T11:46:27;3.97;;;2.60;;
67554;SDS011;54385;53.516;49.456;2023-03-25T11:48:53;8.70;;;3.22;;
67554;SDS011;54385;53.516;49.456;2023-03-25T11:51:21;5.03;;;2.45;;
67554;SDS011;54385;53.516;49.456;2023-03-25T11:53:56;9.00;;;2.65;;
67554;SDS011;54385;53.516;49.456;2023-03-25T11:56:47;9.27;;;2.75;;
67554;SDS011;54385;53.516;49.456;2023-03-25T11:59:25;5.38;;;2.63;;
67554;SDS011;54385;53.516;49.456;2023-03-25T12:02:16;5.25;;;2.50;;
67554;SDS011;54385;53.516;49.456;2023-03-25T12:05:00;4.15;;;2.05;;
67554;SDS011;54385;53.516;49.456;2023-03-25T12:07:28;6.30;;;2.50;;
67554;SDS011;54385;53.516;49.456;2023-03-25T12:10:05;3.40;;;2.03;;
67554;SDS011;54385;53.516;49.456;2023-03-25T12:12:36;4.70;;;2.30;;
67554;SDS011;54385;53.516;49.456;2023-03-25T12:20:52;8.15;;;2.40;;
67554;SDS011;54385;53.516;49.456;2023-03-25T12:23:46;11.13;;;2.45;;
67554;SDS011;54385;53.516;49.456;2023-03-25T12:26:33;9.02;;;2.25;;
67554;SDS011;54385;53.516;49.456;2023-03-25T12:34:56;4.78;;;2.50;;
67554;SDS011;54385;53.516;49.456;2023-03-25T12:38:00;4.20;;;2.33;;
67554;SDS011;54385;53.516;49.456;2023-03-25T12:57:10;4.60;;;2.20;;
67554;SDS011;54385;53.516;49.456;2023-03-25T13:05:44;8.50;;;2.80;;
67554;SDS011;54385;53.516;49.456;2023-03-25T13:11:35;8.60;;;2.80;;
67554;SDS011;54385;53.516;49.456;2023-03-25T13:13:56;4.03;;;2.45;;
67554;SDS011;54385;53.516;49.456;2023-03-25T13:16:27;9.00;;;3.35;;
67554;SDS011;54385;53.516;49.456;2023-03-25T13:19:01;7.57;;;3.15;;
67554;SDS011;54385;53.516;49.456;2023-03-25T13:21:34;3.92;;;2.85;;
67554;SDS011;54385;53.516;49.456;2023-03-25T13:24:11;8.55;;;2.88;;
67554;SDS011;54385;53.516;49.456;2023-03-25T13:26:49;5.32;;;2.70;;
67554;SDS011;54385;53.516;49.456;2023-03-25T13:29:24;5.95;;;2.90;;
67554;SDS011;54385;53.516;49.456;2023-03-25T13:31:51;5.15;;;2.90;;
67554;SDS011;54385;53.516;49.456;2023-03-25T13:48:00;4.20;;;2.47;;
67554;SDS011;54385;53.516;49.456;2023-03-25T13:50:35;4.70;;;2.92;;
67554;SDS011;54385;53.516;49.456;2023-03-25T13:53:11;4.05;;;2.65;;
67554;SDS011;54385;53.516;49.456;2023-03-25T14:01:43;5.28;;;2.80;;
67554;SDS011;54385;53.516;49.456;2023-03-25T14:11:00;7.05;;;3.13;;
67554;SDS011;54385;53.516;49.456;2023-03-25T14:13:31;5.95;;;3.35;;
67554;SDS011;54385;53.516;49.456;2023-03-25T14:16:07;4.95;;;3.05;;
67554;SDS011;54385;53.516;49.456;2023-03-25T14:18:44;4.70;;;2.65;;
67554;SDS011;54385;53.516;49.456;2023-03-25T14:23:47;4.07;;;2.67;;
67554;SDS011;54385;53.516;49.456;2023-03-25T14:26:15;5.32;;;3.13;;
67554;SDS011;54385;53.516;49.456;2023-03-25T14:28:44;8.20;;;2.92;;
67554;SDS011;54385;53.516;49.456;2023-03-25T14:31:23;5.85;;;3.03;;
67554;SDS011;54385;53.516;49.456;2023-03-25T14:36:30;5.47;;;2.80;;
67554;SDS011;54385;53.516;49.456;2023-03-25T14:39:07;5.50;;;3.13;;
67554;SDS011;54385;53.516;49.456;2023-03-25T14:44:36;4.35;;;3.22;;
67554;SDS011;54385;53.516;49.456;2023-03-25T14:49:47;8.07;;;3.35;;
67554;SDS011;54385;53.516;49.456;2023-03-25T14:52:42;5.72;;;3.10;;
67554;SDS011;54385;53.516;49.456;2023-03-25T14:55:16;5.60;;;3.15;;
67554;SDS011;54385;53.516;49.456;2023-03-25T15:00:20;5.80;;;2.60;;
67554;SDS011;54385;53.516;49.456;2023-03-25T15:03:33;11.60;;;2.97;;
67554;SDS011;54385;53.516;49.456;2023-03-25T15:05:42;12.88;;;3.30;;
67554;SDS011;54385;53.516;49.456;2023-03-25T15:10:49;7.40;;;2.88;;
67554;SDS011;54385;53.516;49.456;2023-03-25T15:13:28;4.35;;;2.30;;
67554;SDS011;54385;53.516;49.456;2023-03-25T15:16:03;8.70;;;3.42;;
67554;SDS011;54385;53.516;49.456;2023-03-25T15:23:41;6.72;;;2.97;;
67554;SDS011;54385;53.516;49.456;2023-03-25T15:26:12;3.53;;;2.55;;
67554;SDS011;54385;53.516;49.456;2023-03-25T15:28:45;3.40;;;2.30;;
67554;SDS011;54385;53.516;49.456;2023-03-25T15:37:23;4.65;;;2.47;;
67554;SDS011;54385;53.516;49.456;2023-03-25T15:40:02;11.32;;;3.90;;
67554;SDS011;54385;53.516;49.456;2023-03-25T15:43:20;5.75;;;2.50;;
67554;SDS011;54385;53.516;49.456;2023-03-25T15:45:42;6.43;;;2.55;;
67554;SDS011;54385;53.516;49.456;2023-03-25T15:54:30;4.80;;;2.30;;
67554;SDS011;54385;53.516;49.456;2023-03-25T16:00:03;6.88;;;3.03;;
67554;SDS011;54385;53.516;49.456;2023-03-25T16:05:25;6.15;;;2.22;;
67554;SDS011;54385;53.516;49.456;2023-03-25T16:07:54;5.47;;;2.55;;
67554;SDS011;54385;53.516;49.456;2023-03-25T16:10:28;5.07;;;2.60;;
67554;SDS011;54385;53.516;49.456;2023-03-25T16:13:01;5.78;;;2.42;;
67554;SDS011;54385;53.516;49.456;2023-03-25T16:15:30;5.97;;;2.58;;
67554;SDS011;54385;53.516;49.456;2023-03-25T16:17:57;4.05;;;2.65;;
67554;SDS011;54385;53.516;49.456;2023-03-25T16:20:26;5.40;;;2.35;;
67554;SDS011;54385;53.516;49.456;2023-03-25T16:22:56;3.90;;;2.20;;
67554;SDS011;54385;53.516;49.456;2023-03-25T16:25:46;5.35;;;2.35;;
67554;SDS011;54385;53.516;49.456;2023-03-25T16:28:14;7.90;;;2.40;;
67554;SDS011;54385;53.516;49.456;2023-03-25T16:30:43;4.35;;;1.98;;
67554;SDS011;54385;53.516;49.456;2023-03-25T16:33:15;4.53;;;2.13;;
67554;SDS011;54385;53.516;49.456;2023-03-25T16:38:41;3.90;;;2.60;;
67554;SDS011;54385;53.516;49.456;2023-03-25T16:41:12;4.10;;;2.65;;
67554;SDS011;54385;53.516;49.456;2023-03-25T16:43:40;3.28;;;2.30;;
67554;SDS011;54385;53.516;49.456;2023-03-25T16:46:08;3.38;;;2.75;;
67554;SDS011;54385;53.516;49.456;2023-03-25T16:48:37;4.78;;;2.05;;
67554;SDS011;54385;53.516;49.456;2023-03-25T16:53:38;4.32;;;2.00;;
67554;SDS011;54385;53.516;49.456;2023-03-25T16:58:35;11.18;;;2.38;;
67554;SDS011;54385;53.516;49.456;2023-03-25T17:01:13;6.78;;;2.35;;
67554;SDS011;54385;53.516;49.456;2023-03-25T17:03:41;4.32;;;2.17;;
67554;SDS011;54385;53.516;49.456;2023-03-25T17:06:26;4.85;;;2.78;;
67554;SDS011;54385;53.516;49.456;2023-03-25T17:08:59;5.38;;;2.30;;
67554;SDS011;54385;53.516;49.456;2023-03-25T17:11:29;5.88;;;2.40;;
67554;SDS011;54385;53.516;49.456;2023-03-25T17:13:58;6.57;;;2.63;;
67554;SDS011;54385;53.516;49.456;2023-03-25T17:16:28;4.65;;;3.15;;
67554;SDS011;54385;53.516;49.456;2023-03-25T17:18:57;9.02;;;3.08;;
67554;SDS011;54385;53.516;49.456;2023-03-25T17:21:29;3.17;;;2.25;;
67554;SDS011;54385;53.516;49.456;2023-03-25T17:24:04;5.00;;;3.00;;
67554;SDS011;54385;53.516;49.456;2023-03-25T17:26:56;6.30;;;2.70;;
67554;SDS011;54385;53.516;49.456;2023-03-25T17:29:56;4.80;;;2.90;;
67554;SDS011;54385;53.516;49.456;2023-03-25T17:32:24;4.22;;;2.38;;
67554;SDS011;54385;53.516;49.456;2023-03-25T17:35:15;5.53;;;2.55;;
67554;SDS011;54385;53.516;49.456;2023-03-25T17:37:46;5.70;;;2.72;;
67554;SDS011;54385;53.516;49.456;2023-03-25T17:40:20;5.70;;;2.85;;
67554;SDS011;54385;53.516;49.456;2023-03-25T17:42:50;3.65;;;2.90;;
67554;SDS011;54385;53.516;49.456;2023-03-25T17:45:18;4.38;;;3.10;;
67554;SDS011;54385;53.516;49.456;2023-03-25T17:47:48;5.47;;;3.15;;
67554;SDS011;54385;53.516;49.456;2023-03-25T17:50:17;4.70;;;2.97;;
67554;SDS011;54385;53.516;49.456;2023-03-25T17:52:46;3.60;;;2.88;;
67554;SDS011;54385;53.516;49.456;2023-03-25T17:55:13;5.03;;;2.97;;
67554;SDS011;54385;53.516;49.456;2023-03-25T17:57:40;4.53;;;2.70;;
67554;SDS011;54385;53.516;49.456;2023-03-25T18:00:08;3.60;;;2.70;;
67554;SDS011;54385;53.516;49.456;2023-03-25T18:02:46;5.28;;;2.83;;
67554;SDS011;54385;53.516;49.456;2023-03-25T18:05:13;5.32;;;3.30;;
67554;SDS011;54385;53.516;49.456;2023-03-25T18:07:40;4.75;;;3.03;;
67554;SDS011;54385;53.516;49.456;2023-03-25T18:10:17;4.78;;;3.20;;
67554;SDS011;54385;53.516;49.456;2023-03-25T18:12:45;5.00;;;3.22;;
67554;SDS011;54385;53.516;49.456;2023-03-25T18:15:12;6.38;;;3.15;;
67554;SDS011;54385;53.516;49.456;2023-03-25T18:17:39;5.57;;;3.20;;